Time;durP1;ratioP1;P1;durP2;ratioP2;P2;SDS_P1;SDS_P2;PMS_P1;PMS_P2;Temp;Humidity;BMP_temperature;BMP_pressure;BME280_temperature;BME280_humidity;BME280_pressure;Samples;Min_cycle;Max_cycle;Signal;HPM_P1;HPM_P2
2023/09/23 00:00:14;;;;;;;2.38;0.80;;;;;;;9.25;100.00;92642.59;2103843;28;20028;-85
2023/09/23 00:01:15;;;;;;;1.58;0.55;;;;;;;9.39;100.00;92639.56;2111903;28;20024;-84
2023/09/23 00:02:17;;;;;;;1.42;0.80;;;;;;;9.28;100.00;92639.09;2115346;27;20023;-85
2023/09/23 00:03:19;;;;;;;2.75;0.80;;;;;;;9.29;100.00;92641.34;2117208;27;20111;-84
2023/09/23 00:04:20;;;;;;;0.88;0.60;;;;;;;9.12;100.00;92649.78;2097130;28;20028;-85
2023/09/23 00:05:25;;;;;;;2.78;0.68;;;;;;;9.12;100.00;92647.84;2097048;28;20108;-85
2023/09/23 00:06:27;;;;;;;1.27;0.77;;;;;;;9.20;100.00;92645.78;2104358;28;20039;-84
2023/09/23 00:07:31;;;;;;;2.05;0.90;;;;;;;9.33;100.00;92643.94;2089062;28;20024;-86
2023/09/23 00:08:32;;;;;;;1.75;0.70;;;;;;;9.42;100.00;92654.00;2101860;28;20803;-82
2023/09/23 00:09:33;;;;;;;1.52;0.60;;;;;;;9.44;100.00;92646.31;2095806;28;20063;-84
2023/09/23 00:10:37;;;;;;;1.35;0.85;;;;;;;9.39;100.00;92652.91;2098496;28;20024;-87
2023/09/23 00:11:40;;;;;;;4.22;0.60;;;;;;;9.27;100.00;92648.28;2106425;28;20341;-85
2023/09/23 00:12:41;;;;;;;5.25;0.82;;;;;;;9.27;100.00;92649.03;2104021;28;20077;-85
2023/09/23 00:13:43;;;;;;;2.33;0.95;;;;;;;9.30;100.00;92658.84;2106323;28;20077;-85
2023/09/23 00:14:44;;;;;;;0.93;0.70;;;;;;;9.27;100.00;92646.38;2114445;28;20027;-82
2023/09/23 00:15:46;;;;;;;0.63;0.57;;;;;;;9.32;100.00;92648.53;2114965;28;20072;-83
2023/09/23 00:16:47;;;;;;;1.17;0.80;;;;;;;9.38;100.00;92656.75;2106092;28;20043;-84
2023/09/23 00:17:48;;;;;;;1.10;0.77;;;;;;;9.48;100.00;92642.41;2098139;28;20464;-86
2023/09/23 00:18:51;;;;;;;1.08;0.77;;;;;;;9.63;100.00;92644.72;2106330;28;20142;-85
2023/09/23 00:19:52;;;;;;;2.40;0.93;;;;;;;9.71;100.00;92643.38;2109809;28;20488;-82
2023/09/23 00:20:54;;;;;;;2.83;0.65;;;;;;;9.59;100.00;92650.88;2097932;28;20021;-83
2023/09/23 00:21:56;;;;;;;3.03;0.82;;;;;;;9.65;100.00;92645.03;2091293;28;20065;-85
2023/09/23 00:22:57;;;;;;;0.85;0.60;;;;;;;9.48;100.00;92646.97;2099442;28;20044;-81
2023/09/23 00:23:58;;;;;;;3.92;0.60;;;;;;;9.50;100.00;92644.66;2106359;28;20043;-84
2023/09/23 00:24:59;;;;;;;0.80;0.70;;;;;;;9.42;100.00;92643.34;2106237;28;20028;-85
2023/09/23 00:26:01;;;;;;;1.20;0.60;;;;;;;9.51;100.00;92643.47;2097746;28;20126;-87
2023/09/23 00:27:02;;;;;;;1.27;0.52;;;;;;;9.57;100.00;92645.25;2097898;28;20058;-82
2023/09/23 00:28:07;;;;;;;2.45;0.77;;;;;;;9.52;100.00;92639.63;2100191;28;20046;-83
2023/09/23 00:29:08;;;;;;;2.03;1.00;;;;;;;9.46;100.00;92639.41;2106767;28;20031;-83
2023/09/23 00:30:12;;;;;;;1.35;0.95;;;;;;;9.43;100.00;92632.22;2106163;28;20095;-83
2023/09/23 00:31:14;;;;;;;1.55;0.75;;;;;;;9.51;100.00;92636.22;2103356;28;20020;-86
2023/09/23 00:32:17;;;;;;;1.98;0.80;;;;;;;9.54;100.00;92640.72;2106642;28;20043;-81
2023/09/23 00:33:18;;;;;;;1.08;0.88;;;;;;;9.47;100.00;92635.56;2106076;28;20027;-84
2023/09/23 00:34:23;;;;;;;1.23;0.82;;;;;;;9.29;100.00;92648.59;2106326;28;20022;-81
2023/09/23 00:35:24;;;;;;;2.30;0.70;;;;;;;9.31;100.00;92639.03;2106042;28;20111;-84
2023/09/23 00:36:25;;;;;;;3.95;0.77;;;;;;;9.10;100.00;92646.78;2096866;28;20346;-82
2023/09/23 00:37:26;;;;;;;3.13;0.80;;;;;;;9.04;100.00;92639.28;2097903;28;20075;-83
2023/09/23 00:38:27;;;;;;;0.90;0.77;;;;;;;8.96;100.00;92647.88;2097751;28;20032;-85
2023/09/23 00:39:29;;;;;;;0.60;0.50;;;;;;;8.90;100.00;92647.59;2106395;28;20381;-85
2023/09/23 00:40:32;;;;;;;1.92;0.60;;;;;;;8.94;100.00;92637.63;2106268;28;20024;-83
2023/09/23 00:41:33;;;;;;;1.42;0.60;;;;;;;8.68;100.00;92641.25;2103176;28;20020;-87
2023/09/23 00:42:36;;;;;;;1.13;0.80;;;;;;;8.73;100.00;92632.78;2097691;28;20028;-84
2023/09/23 00:43:37;;;;;;;1.92;0.80;;;;;;;8.80;100.00;92648.59;2089841;28;20045;-83
2023/09/23 00:44:41;;;;;;;2.05;0.80;;;;;;;8.73;100.00;92646.84;2092155;28;20021;-85
2023/09/23 00:45:48;;;;;;;1.50;0.70;;;;;;;8.71;100.00;92646.50;2105290;28;20028;-83
2023/09/23 00:46:49;;;;;;;1.13;0.75;;;;;;;8.71;100.00;92651.09;2099248;28;20402;-83
2023/09/23 00:47:50;;;;;;;6.53;0.70;;;;;;;8.64;100.00;92653.91;2105713;28;20035;-84
2023/09/23 00:48:51;;;;;;;1.95;0.82;;;;;;;8.41;100.00;92647.53;2106085;28;20119;-83
2023/09/23 00:49:52;;;;;;;1.23;0.80;;;;;;;8.34;100.00;92655.66;2109407;28;20384;-86
2023/09/23 00:50:54;;;;;;;0.70;0.70;;;;;;;8.37;100.00;92654.84;2114484;28;20035;-83
2023/09/23 00:51:55;;;;;;;1.88;0.70;;;;;;;8.30;100.00;92653.06;2107779;28;20409;-83
2023/09/23 00:52:58;;;;;;;0.70;0.70;;;;;;;8.10;100.00;92649.69;2097344;28;20103;-82
2023/09/23 00:54:01;;;;;;;3.22;0.80;;;;;;;8.00;100.00;92658.63;2098106;28;20508;-81
2023/09/23 00:55:04;;;;;;;1.25;0.80;;;;;;;8.09;100.00;92656.16;2098447;28;20031;-82
2023/09/23 00:56:07;;;;;;;2.35;1.10;;;;;;;8.02;100.00;92659.69;2098522;28;20024;-84
2023/09/23 00:57:09;;;;;;;3.88;0.70;;;;;;;7.97;100.00;92657.53;2114701;27;20442;-84
2023/09/23 00:58:14;;;;;;;1.58;0.70;;;;;;;8.08;100.00;92654.66;2111309;28;20059;-81
2023/09/23 00:59:17;;;;;;;1.10;0.80;;;;;;;7.95;100.00;92654.53;2098175;28;20047;-83
2023/09/23 01:00:25;;;;;;;0.82;0.70;;;;;;;7.97;100.00;92662.09;2104572;28;20032;-84
2023/09/23 01:01:27;;;;;;;1.30;1.10;;;;;;;7.89;100.00;92658.81;2099572;28;21053;-84
2023/09/23 01:02:28;;;;;;;0.60;0.50;;;;;;;7.91;100.00;92653.84;2105438;28;20036;-82
2023/09/23 01:03:30;;;;;;;0.73;0.60;;;;;;;7.85;100.00;92652.81;2105317;28;20080;-82
2023/09/23 01:04:33;;;;;;;2.30;0.93;;;;;;;7.79;100.00;92657.13;2097873;28;20025;-85
2023/09/23 01:05:34;;;;;;;1.23;0.70;;;;;;;7.72;100.00;92657.97;2098186;28;20111;-86
2023/09/23 01:06:35;;;;;;;0.95;0.70;;;;;;;7.81;100.00;92654.78;2102115;28;20460;-84
2023/09/23 01:07:38;;;;;;;0.68;0.65;;;;;;;7.74;100.00;92658.34;2106676;28;20024;-83
2023/09/23 01:08:41;;;;;;;0.98;0.63;;;;;;;7.61;100.00;92657.44;2114377;28;20049;-86
2023/09/23 01:09:44;;;;;;;1.00;0.80;;;;;;;7.62;100.00;92664.25;2112258;28;20024;-83
2023/09/23 01:10:48;;;;;;;0.73;0.60;;;;;;;7.58;100.00;92666.22;2103887;28;20083;-83
2023/09/23 01:11:52;;;;;;;1.05;0.60;;;;;;;7.48;100.00;92667.19;2114780;28;20023;-82
2023/09/23 01:12:53;;;;;;;1.38;0.90;;;;;;;7.38;100.00;92670.78;2106368;28;20334;-84
2023/09/23 01:13:54;;;;;;;1.02;0.57;;;;;;;7.33;100.00;92671.97;2097703;28;20027;-82
2023/09/23 01:15:00;;;;;;;0.50;0.50;;;;;;;7.22;100.00;92672.16;2105242;28;20031;-85
2023/09/23 01:16:06;;;;;;;1.13;0.82;;;;;;;7.21;100.00;92670.66;2099060;28;20039;-85
2023/09/23 01:17:10;;;;;;;2.47;0.73;;;;;;;7.16;100.00;92670.38;2101518;28;20370;-84
2023/09/23 01:18:24;;;;;;;1.58;0.57;;;;;;;7.25;100.00;92674.00;2101042;28;20107;-84
2023/09/23 01:19:25;;;;;;;0.82;0.70;;;;;;;7.25;100.00;92673.25;2108052;28;20028;-85
2023/09/23 01:20:26;;;;;;;0.95;0.65;;;;;;;7.21;100.00;92677.88;2106105;28;21074;-84
2023/09/23 01:21:27;;;;;;;1.50;0.55;;;;;;;7.15;100.00;92674.16;2105857;28;20064;-86
2023/09/23 01:22:30;;;;;;;1.70;0.60;;;;;;;7.17;100.00;92675.28;2101330;28;20094;-82
2023/09/23 01:23:34;;;;;;;4.32;0.90;;;;;;;7.13;100.00;92673.84;2105871;28;20043;-85
2023/09/23 01:24:35;;;;;;;4.32;0.82;;;;;;;7.10;100.00;92677.28;2102715;28;20028;-85
2023/09/23 01:25:37;;;;;;;1.42;0.50;;;;;;;7.12;100.00;92682.97;2105994;28;20035;-83
2023/09/23 01:26:39;;;;;;;3.55;0.55;;;;;;;7.04;100.00;92682.31;2108882;28;20468;-82
2023/09/23 01:27:40;;;;;;;0.80;0.60;;;;;;;6.89;100.00;92684.44;2107092;28;20390;-83
2023/09/23 01:28:43;;;;;;;1.17;0.50;;;;;;;6.86;100.00;92682.59;2109506;28;20035;-83
2023/09/23 01:29:44;;;;;;;1.98;0.88;;;;;;;6.77;100.00;92687.66;2107783;28;20020;-81
2023/09/23 01:30:45;;;;;;;0.77;0.60;;;;;;;6.69;100.00;92694.22;2097505;28;20056;-82
2023/09/23 01:32:04;;;;;;;0.75;0.50;;;;;;;6.80;100.00;92698.25;2101126;28;20430;-84
2023/09/23 01:33:08;;;;;;;0.80;0.52;;;;;;;6.84;100.00;92697.41;2102075;28;20028;-84
2023/09/23 01:34:09;;;;;;;2.45;0.60;;;;;;;6.74;100.00;92691.09;2106866;27;20039;-83
2023/09/23 01:35:11;;;;;;;0.55;0.45;;;;;;;6.75;100.00;92693.34;2105768;28;20052;-81
2023/09/23 01:36:12;;;;;;;1.02;0.70;;;;;;;6.81;100.00;92699.75;2097547;28;20218;-83
2023/09/23 01:37:13;;;;;;;1.10;0.70;;;;;;;6.71;100.00;92689.25;2097591;28;20380;-83
2023/09/23 01:38:15;;;;;;;0.95;0.68;;;;;;;6.70;100.00;92685.09;2090842;28;20024;-84
2023/09/23 01:39:16;;;;;;;0.85;0.65;;;;;;;6.75;100.00;92688.03;2114511;27;20376;-86
2023/09/23 01:40:17;;;;;;;0.70;0.50;;;;;;;6.73;100.00;92681.66;2112085;28;20027;-81
2023/09/23 01:41:18;;;;;;;2.72;0.40;;;;;;;6.76;100.00;92686.91;2105569;28;20396;-85
2023/09/23 01:42:19;;;;;;;0.70;0.63;;;;;;;6.75;100.00;92684.63;2103947;28;20052;-85
2023/09/23 01:43:20;;;;;;;0.60;0.60;;;;;;;6.71;100.00;92683.94;2105609;28;20024;-83
2023/09/23 01:44:21;;;;;;;0.75;0.57;;;;;;;6.67;100.00;92685.88;2114082;27;20023;-84
2023/09/23 01:45:23;;;;;;;0.55;0.50;;;;;;;6.67;100.00;92683.22;2105502;28;20032;-81
2023/09/23 01:46:24;;;;;;;1.60;0.68;;;;;;;6.71;100.00;92682.03;2098912;28;20024;-82
2023/09/23 01:47:25;;;;;;;0.95;0.60;;;;;;;6.55;100.00;92682.66;2097723;28;20017;-84
2023/09/23 01:48:27;;;;;;;1.08;0.70;;;;;;;6.68;100.00;92684.75;2097144;28;20778;-87
2023/09/23 01:49:28;;;;;;;2.17;0.60;;;;;;;6.73;100.00;92686.97;2097439;28;20029;-83
2023/09/23 01:50:29;;;;;;;1.88;0.60;;;;;;;6.70;100.00;92685.09;2105116;28;20043;-81
2023/09/23 01:51:30;;;;;;;9.10;0.90;;;;;;;6.53;100.00;92687.59;2113815;28;20038;-87
2023/09/23 01:52:34;;;;;;;1.05;0.60;;;;;;;6.65;100.00;92683.66;2089055;28;20119;-86
2023/09/23 01:53:35;;;;;;;0.73;0.50;;;;;;;6.58;100.00;92686.38;2110852;28;20032;-81
2023/09/23 01:54:36;;;;;;;1.10;0.60;;;;;;;6.55;100.00;92677.34;2114211;28;20024;-83
2023/09/23 01:55:38;;;;;;;0.43;0.43;;;;;;;6.65;100.00;92682.91;2104435;28;20028;-85
2023/09/23 01:56:39;;;;;;;1.10;0.75;;;;;;;6.61;100.00;92682.19;2091625;28;20466;-81
2023/09/23 01:57:40;;;;;;;1.52;0.70;;;;;;;6.54;100.00;92673.19;2105650;28;20024;-81
2023/09/23 01:58:41;;;;;;;0.63;0.45;;;;;;;6.54;100.00;92683.81;2111025;28;20030;-83
2023/09/23 01:59:45;;;;;;;1.27;0.52;;;;;;;6.31;100.00;92686.38;2111046;28;20074;-81
2023/09/23 02:00:46;;;;;;;1.75;0.50;;;;;;;6.39;100.00;92679.06;2105730;28;20055;-84
2023/09/23 02:01:48;;;;;;;1.10;0.60;;;;;;;6.35;100.00;92681.03;2096928;28;20016;-83
2023/09/23 02:02:49;;;;;;;2.08;1.00;;;;;;;6.38;100.00;92677.56;2097203;28;20108;-84
2023/09/23 02:03:51;;;;;;;1.92;0.95;;;;;;;6.41;100.00;92685.50;2105652;28;20084;-83
2023/09/23 02:04:52;;;;;;;0.82;0.40;;;;;;;6.30;100.00;92680.31;2113920;27;20031;-86
2023/09/23 02:05:53;;;;;;;2.45;0.60;;;;;;;6.45;100.00;92680.13;2113656;28;20059;-82
2023/09/23 02:06:55;;;;;;;2.65;0.70;;;;;;;6.46;100.00;92682.38;2097023;28;20025;-82
2023/09/23 02:07:56;;;;;;;1.23;0.60;;;;;;;6.44;100.00;92678.63;2104843;28;20028;-83
2023/09/23 02:08:57;;;;;;;0.82;0.68;;;;;;;6.23;100.00;92684.94;2105319;28;20689;-83
2023/09/23 02:09:58;;;;;;;1.05;0.50;;;;;;;6.40;100.00;92683.22;2099282;28;20035;-86
2023/09/23 02:10:59;;;;;;;0.80;0.57;;;;;;;6.35;100.00;92686.31;2097014;28;20025;-82
2023/09/23 02:12:00;;;;;;;2.25;1.35;;;;;;;6.37;100.00;92689.34;2110532;28;20455;-85
2023/09/23 02:13:02;;;;;;;2.63;0.70;;;;;;;6.43;100.00;92685.84;2105420;28;20066;-85
2023/09/23 02:14:05;;;;;;;0.77;0.57;;;;;;;6.36;100.00;92683.25;2096989;28;20035;-82
2023/09/23 02:15:07;;;;;;;0.60;0.60;;;;;;;6.22;100.00;92697.47;2101793;28;20423;-83
2023/09/23 02:16:08;;;;;;;0.90;0.60;;;;;;;6.28;100.00;92698.56;2088890;28;20093;-85
2023/09/23 02:17:09;;;;;;;2.55;0.52;;;;;;;6.26;100.00;92702.75;2102149;28;20043;-83
2023/09/23 02:18:10;;;;;;;1.17;0.55;;;;;;;6.20;100.00;92702.44;2098039;28;20024;-83
2023/09/23 02:19:11;;;;;;;0.50;0.50;;;;;;;6.13;100.00;92707.06;2089889;28;20132;-85
2023/09/23 02:20:20;;;;;;;1.30;0.50;;;;;;;6.08;100.00;92710.16;2097223;28;20439;-82
2023/09/23 02:23:14;;;;;;;;;;;;;;;5.54;100.00;92718.66;2146545;27;20121;-80
2023/09/23 02:24:15;;;;;;;0.52;0.50;;;;;;;5.50;100.00;92718.66;2121218;28;19940;-83
2023/09/23 02:25:31;;;;;;;0.50;0.50;;;;;;;5.54;100.00;92724.69;2107806;28;20035;-82
2023/09/23 02:26:32;;;;;;;0.82;0.40;;;;;;;5.54;100.00;92721.28;2107880;28;20032;-88
2023/09/23 02:27:34;;;;;;;0.60;0.40;;;;;;;5.65;100.00;92724.59;2112679;28;20028;-87
2023/09/23 02:28:36;;;;;;;0.55;0.50;;;;;;;5.62;100.00;92728.03;2100829;28;20131;-82
2023/09/23 02:29:40;;;;;;;2.53;0.80;;;;;;;5.60;100.00;92735.63;2112961;27;20024;-86
2023/09/23 02:30:41;;;;;;;0.80;0.60;;;;;;;5.60;100.00;92740.16;2129968;27;20023;-83
2023/09/23 02:31:48;;;;;;;1.08;0.65;;;;;;;5.64;100.00;92738.25;2117963;28;20361;-83
2023/09/23 02:32:49;;;;;;;0.55;0.50;;;;;;;5.64;100.00;92736.34;2114196;27;20039;-84
2023/09/23 02:33:50;;;;;;;2.05;0.60;;;;;;;5.71;100.00;92740.84;2114887;28;20031;-83
2023/09/23 02:34:51;;;;;;;2.40;0.90;;;;;;;5.67;100.00;92743.50;2112464;28;20059;-83
2023/09/23 02:35:52;;;;;;;0.45;0.40;;;;;;;5.74;100.00;92745.34;2112595;28;20565;-83
2023/09/23 02:36:54;;;;;;;1.25;0.60;;;;;;;5.79;100.00;92739.59;2109137;28;20068;-84
2023/09/23 02:37:55;;;;;;;0.82;0.73;;;;;;;5.81;100.00;92747.94;2104222;28;20473;-86
2023/09/23 02:38:57;;;;;;;6.18;0.63;;;;;;;5.76;100.00;92745.72;2111384;28;20019;-85
2023/09/23 02:39:58;;;;;;;4.78;1.38;;;;;;;5.73;100.00;92744.59;2106471;28;20048;-82
2023/09/23 02:41:04;;;;;;;1.17;0.50;;;;;;;5.70;100.00;92739.31;2112492;28;20085;-84
2023/09/23 02:42:06;;;;;;;2.42;0.60;;;;;;;5.74;100.00;92740.03;2105308;28;20024;-85
2023/09/23 02:43:07;;;;;;;1.38;0.70;;;;;;;5.72;100.00;92742.34;2112409;28;20024;-84
2023/09/23 02:44:08;;;;;;;2.58;0.82;;;;;;;5.76;100.00;92735.84;2112735;28;20100;-83
2023/09/23 02:45:10;;;;;;;1.88;0.70;;;;;;;5.78;100.00;92741.50;2115995;28;20031;-83
2023/09/23 02:46:11;;;;;;;2.40;0.90;;;;;;;5.87;100.00;92741.03;2121019;28;20074;-83
2023/09/23 02:47:12;;;;;;;0.80;0.70;;;;;;;5.72;100.00;92737.78;2112581;27;20038;-85
2023/09/23 02:48:14;;;;;;;0.68;0.50;;;;;;;5.68;100.00;92736.31;2119820;28;20023;-82
2023/09/23 02:49:16;;;;;;;1.35;0.50;;;;;;;5.62;100.00;92737.88;2104328;28;20024;-82
2023/09/23 02:50:17;;;;;;;2.85;0.70;;;;;;;5.64;100.00;92739.00;2099995;28;20024;-83
2023/09/23 02:51:18;;;;;;;1.23;0.50;;;;;;;5.61;100.00;92741.66;2104013;28;20024;-81
2023/09/23 02:52:19;;;;;;;2.28;0.70;;;;;;;5.73;100.00;92736.63;2120029;28;20023;-82
2023/09/23 02:53:20;;;;;;;0.88;0.50;;;;;;;5.73;100.00;92741.94;2112630;28;20107;-82
2023/09/23 02:54:21;;;;;;;1.88;0.50;;;;;;;5.76;100.00;92743.06;2112364;28;20422;-82
2023/09/23 02:55:22;;;;;;;0.82;0.63;;;;;;;5.77;100.00;92737.34;2103868;28;20042;-83
2023/09/23 02:56:23;;;;;;;1.98;0.55;;;;;;;5.81;100.00;92745.28;2103989;28;20042;-84
2023/09/23 02:57:25;;;;;;;0.65;0.60;;;;;;;5.88;100.00;92747.09;2112465;28;20371;-85
2023/09/23 02:58:26;;;;;;;1.17;0.63;;;;;;;5.82;100.00;92744.13;2111623;27;20064;-83
2023/09/23 02:59:31;;;;;;;2.53;0.60;;;;;;;5.76;100.00;92749.13;2112519;28;20024;-83
2023/09/23 03:00:33;;;;;;;0.55;0.52;;;;;;;5.78;100.00;92751.34;2112758;28;20055;-81
2023/09/23 03:01:34;;;;;;;0.60;0.57;;;;;;;5.66;100.00;92744.63;2112570;28;20048;-81
2023/09/23 03:02:35;;;;;;;0.70;0.60;;;;;;;5.61;100.00;92753.03;2099944;28;20029;-84
2023/09/23 03:03:40;;;;;;;3.30;0.63;;;;;;;5.59;100.00;92749.28;2099945;28;20039;-83
2023/09/23 03:04:43;;;;;;;0.90;0.60;;;;;;;5.47;100.00;92751.25;2105202;28;20028;-82
2023/09/23 03:05:54;;;;;;;2.58;0.60;;;;;;;5.46;100.00;92747.09;2104556;28;20494;-82
2023/09/23 03:07:01;;;;;;;1.17;0.63;;;;;;;5.42;100.00;92748.28;2113977;28;20030;-82
2023/09/23 03:08:02;;;;;;;0.65;0.65;;;;;;;5.39;100.00;92747.16;2113323;28;20040;-81
2023/09/23 03:09:08;;;;;;;3.05;0.60;;;;;;;5.35;100.00;92758.94;2120565;28;20576;-83
2023/09/23 03:10:13;;;;;;;1.50;0.70;;;;;;;5.32;100.00;92754.44;2109850;28;20052;-85
2023/09/23 03:11:18;;;;;;;1.15;0.63;;;;;;;5.29;100.00;92748.75;2096827;28;20112;-83
2023/09/23 03:12:19;;;;;;;0.93;0.60;;;;;;;5.38;100.00;92748.31;2104977;28;20020;-83
2023/09/23 03:13:23;;;;;;;3.20;0.68;;;;;;;5.35;100.00;92754.38;2112470;28;20047;-82
2023/09/23 03:14:30;;;;;;;0.80;0.50;;;;;;;5.42;100.00;92756.22;2105019;28;20023;-81
2023/09/23 03:15:44;;;;;;;0.98;0.70;;;;;;;5.36;100.00;92749.84;2127071;27;20079;-83
2023/09/23 03:16:49;;;;;;;0.95;0.80;;;;;;;5.38;100.00;92750.94;2125372;27;20106;-82
2023/09/23 03:17:50;;;;;;;0.80;0.52;;;;;;;5.42;100.00;92751.69;2112338;28;20027;-84
2023/09/23 03:19:10;;;;;;;0.68;0.57;;;;;;;5.30;100.00;92752.91;2097538;28;20128;-83
2023/09/23 03:20:11;;;;;;;0.88;0.60;;;;;;;5.32;100.00;92757.06;2106290;28;20103;-82
2023/09/23 03:21:12;;;;;;;2.80;0.70;;;;;;;5.26;100.00;92762.03;2102302;28;20048;-83
2023/09/23 03:22:13;;;;;;;1.15;0.85;;;;;;;5.28;100.00;92757.09;2103678;28;20110;-85
2023/09/23 03:23:14;;;;;;;1.95;0.88;;;;;;;5.26;100.00;92754.81;2113534;28;20032;-81
2023/09/23 03:24:15;;;;;;;2.55;0.47;;;;;;;5.39;100.00;92759.66;2112248;28;20028;-82
2023/09/23 03:25:18;;;;;;;2.47;0.63;;;;;;;5.34;100.00;92758.19;2099432;28;20054;-84
2023/09/23 03:26:19;;;;;;;1.45;0.70;;;;;;;5.28;100.00;92762.41;2095709;28;20025;-82
2023/09/23 03:27:23;;;;;;;0.70;0.60;;;;;;;5.20;100.00;92759.03;2087346;28;20025;-82
2023/09/23 03:28:24;;;;;;;4.25;0.63;;;;;;;5.15;100.00;92759.47;2095018;28;20410;-83
2023/09/23 03:29:30;;;;;;;0.43;0.40;;;;;;;5.14;100.00;92751.91;2087258;28;20033;-83
2023/09/23 03:30:31;;;;;;;0.43;0.30;;;;;;;5.32;100.00;92759.72;2102608;28;20074;-82
2023/09/23 03:31:32;;;;;;;0.75;0.45;;;;;;;5.33;100.00;92764.63;2095339;28;20021;-84
2023/09/23 03:32:33;;;;;;;6.07;0.50;;;;;;;5.19;100.00;92762.84;2103883;28;20070;-84
2023/09/23 03:33:35;;;;;;;3.72;0.43;;;;;;;5.19;100.00;92762.09;2103826;28;20016;-81
2023/09/23 03:34:37;;;;;;;0.47;0.47;;;;;;;5.24;100.00;92764.31;2090227;28;20025;-83
2023/09/23 03:35:39;;;;;;;2.33;0.50;;;;;;;5.27;100.00;92771.50;2088868;28;20052;-85
2023/09/23 03:36:43;;;;;;;0.43;0.30;;;;;;;5.26;100.00;92765.41;2091972;28;20021;-83
2023/09/23 03:37:49;;;;;;;0.63;0.35;;;;;;;5.13;100.00;92763.63;2099009;28;20115;-83
2023/09/23 03:38:51;;;;;;;2.78;0.40;;;;;;;5.08;100.00;92764.81;2096832;28;20400;-86
2023/09/23 03:39:52;;;;;;;0.30;0.30;;;;;;;5.05;100.00;92774.28;2090065;28;20116;-85
2023/09/23 03:40:56;;;;;;;0.47;0.40;;;;;;;5.28;100.00;92763.16;2089840;28;20641;-84
2023/09/23 03:41:57;;;;;;;0.55;0.52;;;;;;;5.32;100.00;92765.03;2094801;28;20492;-85
2023/09/23 03:43:01;;;;;;;2.53;0.30;;;;;;;5.31;100.00;92766.91;2089624;28;20036;-83
2023/09/23 03:44:03;;;;;;;0.75;0.60;;;;;;;5.23;100.00;92768.13;2099000;28;20419;-83
2023/09/23 03:45:06;;;;;;;1.80;0.47;;;;;;;5.29;100.00;92774.50;2106199;28;20035;-81
2023/09/23 03:46:11;;;;;;;0.40;0.40;;;;;;;5.22;100.00;92774.53;2090300;28;20023;-81
2023/09/23 03:47:12;;;;;;;0.73;0.40;;;;;;;5.32;100.00;92767.69;2090877;28;20543;-84
2023/09/23 03:48:14;;;;;;;0.30;0.30;;;;;;;5.25;100.00;92773.78;2089570;28;20082;-84
2023/09/23 03:49:15;;;;;;;0.80;0.55;;;;;;;5.24;100.00;92772.28;2090121;28;20029;-84
2023/09/23 03:50:16;;;;;;;0.90;0.50;;;;;;;5.36;100.00;92771.81;2085354;28;20104;-82
2023/09/23 03:51:17;;;;;;;0.95;0.50;;;;;;;5.33;100.00;92771.81;2089949;28;20025;-83
2023/09/23 03:52:19;;;;;;;0.40;0.40;;;;;;;5.29;100.00;92780.56;2098068;28;20115;-82
2023/09/23 03:53:24;;;;;;;0.30;0.30;;;;;;;5.32;100.00;92771.06;2092516;28;20150;-82
2023/09/23 03:54:26;;;;;;;0.43;0.40;;;;;;;5.42;100.00;92780.09;2091156;28;20028;-83
2023/09/23 03:55:28;;;;;;;0.40;0.40;;;;;;;5.40;100.00;92785.00;2103995;28;20043;-82
2023/09/23 03:56:29;;;;;;;0.50;0.40;;;;;;;5.38;100.00;92785.41;2106402;28;20024;-86
2023/09/23 03:57:30;;;;;;;0.43;0.43;;;;;;;5.19;100.00;92784.03;2106216;28;20028;-86
2023/09/23 03:58:31;;;;;;;0.40;0.40;;;;;;;5.22;100.00;92796.50;2095248;28;20123;-84
2023/09/23 03:59:32;;;;;;;0.47;0.47;;;;;;;5.20;100.00;92795.38;2098034;28;20020;-84
2023/09/23 04:00:36;;;;;;;0.90;0.60;;;;;;;5.20;100.00;92796.13;2098135;28;20028;-87
2023/09/23 04:01:38;;;;;;;0.50;0.50;;;;;;;5.28;100.00;92788.91;2091464;28;20465;-83
2023/09/23 04:02:39;;;;;;;0.50;0.50;;;;;;;5.29;100.00;92793.06;2102755;28;20399;-84
2023/09/23 04:03:41;;;;;;;0.40;0.40;;;;;;;5.36;100.00;92797.56;2106153;28;20040;-85
2023/09/23 04:04:42;;;;;;;0.50;0.50;;;;;;;5.30;100.00;92792.66;2098183;28;20056;-84
2023/09/23 04:05:43;;;;;;;0.80;0.50;;;;;;;5.32;100.00;92791.53;2105755;28;20020;-82
2023/09/23 04:06:44;;;;;;;0.50;0.50;;;;;;;5.20;100.00;92790.09;2089457;28;20100;-82
2023/09/23 04:07:49;;;;;;;0.60;0.50;;;;;;;5.26;100.00;92799.13;2106032;28;20091;-83
2023/09/23 04:08:50;;;;;;;1.70;0.60;;;;;;;5.34;100.00;92792.63;2106127;28;20028;-83
2023/09/23 04:09:51;;;;;;;5.00;0.55;;;;;;;5.36;100.00;92789.59;2089755;28;20031;-86
2023/09/23 04:10:52;;;;;;;1.60;0.47;;;;;;;5.39;100.00;92800.16;2089725;28;20036;-83
2023/09/23 04:11:54;;;;;;;0.40;0.40;;;;;;;5.66;100.00;92789.72;2089836;28;20093;-84
2023/09/23 04:12:56;;;;;;;1.38;1.02;;;;;;;5.59;100.00;92792.44;2098279;28;20023;-84
2023/09/23 04:13:57;;;;;;;0.43;0.43;;;;;;;5.38;100.00;92790.72;2104839;28;20541;-83
2023/09/23 04:14:58;;;;;;;0.40;0.40;;;;;;;5.46;100.00;92791.41;2089534;28;20033;-84
2023/09/23 04:16:03;;;;;;;0.60;0.60;;;;;;;5.47;100.00;92791.00;2109962;28;20435;-85
2023/09/23 04:17:04;;;;;;;0.68;0.43;;;;;;;5.50;100.00;92790.25;2097717;28;20035;-81
2023/09/23 04:18:05;;;;;;;0.40;0.40;;;;;;;5.54;100.00;92796.28;2098034;28;20024;-82
2023/09/23 04:19:06;;;;;;;0.40;0.40;;;;;;;5.51;100.00;92791.00;2106088;28;20028;-82
2023/09/23 04:20:13;;;;;;;2.10;0.50;;;;;;;5.50;100.00;92800.84;2101068;28;20032;-84
2023/09/23 04:21:14;;;;;;;1.05;0.52;;;;;;;5.45;100.00;92790.66;2102253;28;20182;-85
2023/09/23 04:22:15;;;;;;;1.35;0.40;;;;;;;5.35;100.00;92794.13;2091081;28;20025;-82
2023/09/23 04:23:16;;;;;;;0.60;0.60;;;;;;;5.27;100.00;92792.69;2103548;28;20032;-82
2023/09/23 04:24:17;;;;;;;0.40;0.40;;;;;;;5.36;100.00;92800.97;2098027;28;20031;-84
2023/09/23 04:25:21;;;;;;;2.10;0.50;;;;;;;5.43;100.00;92794.84;2101716;28;20029;-84
2023/09/23 04:26:24;;;;;;;0.55;0.55;;;;;;;5.29;100.00;92793.81;2089944;28;20126;-83
2023/09/23 04:27:25;;;;;;;0.43;0.43;;;;;;;5.31;100.00;92793.41;2097633;28;20025;-83
2023/09/23 04:28:27;;;;;;;0.52;0.52;;;;;;;5.30;100.00;92794.56;2087468;28;20148;-84
2023/09/23 04:29:30;;;;;;;3.03;0.52;;;;;;;5.15;100.00;92795.81;2081451;28;20072;-83
2023/09/23 04:30:31;;;;;;;1.00;0.40;;;;;;;5.30;100.00;92800.59;2089804;28;20037;-84
2023/09/23 04:31:32;;;;;;;1.55;0.55;;;;;;;5.30;100.00;92797.19;2089926;28;20460;-82
2023/09/23 04:32:34;;;;;;;0.65;0.43;;;;;;;5.26;100.00;92799.13;2089537;28;20031;-80
2023/09/23 04:33:35;;;;;;;0.40;0.40;;;;;;;5.16;100.00;92792.00;2089505;28;20025;-82
2023/09/23 04:34:36;;;;;;;2.53;0.68;;;;;;;5.23;100.00;92790.06;2089544;28;20057;-82
2023/09/23 04:35:37;;;;;;;3.20;0.50;;;;;;;5.23;100.00;92800.66;2080982;28;20775;-83
2023/09/23 04:36:38;;;;;;;0.77;0.30;;;;;;;5.29;100.00;92801.00;2089369;28;20064;-84
2023/09/23 04:37:39;;;;;;;0.50;0.50;;;;;;;5.19;100.00;92802.59;2089510;28;20032;-81
2023/09/23 04:38:45;;;;;;;0.68;0.40;;;;;;;5.24;100.00;92804.81;2086569;28;20021;-81
2023/09/23 04:39:46;;;;;;;0.40;0.40;;;;;;;5.33;100.00;92807.03;2086495;28;20025;-82
2023/09/23 04:40:47;;;;;;;1.48;0.57;;;;;;;5.29;100.00;92814.25;2081204;28;20021;-83
2023/09/23 04:41:48;;;;;;;0.73;0.43;;;;;;;5.37;100.00;92810.41;2083631;28;20025;-84
2023/09/23 04:42:49;;;;;;;0.98;0.57;;;;;;;5.27;100.00;92819.94;2089312;28;20029;-84
2023/09/23 04:43:50;;;;;;;0.70;0.70;;;;;;;5.24;100.00;92809.38;2092451;28;20017;-83
2023/09/23 04:44:51;;;;;;;0.57;0.50;;;;;;;5.34;100.00;92815.72;2097613;28;20090;-85
2023/09/23 04:45:52;;;;;;;1.55;0.60;;;;;;;5.33;100.00;92812.31;2088557;28;20036;-84
2023/09/23 04:46:53;;;;;;;0.73;0.73;;;;;;;5.40;100.00;92814.16;2092056;28;20066;-81
2023/09/23 04:47:54;;;;;;;1.40;0.60;;;;;;;5.34;100.00;92810.44;2097633;28;20096;-83
2023/09/23 04:48:55;;;;;;;0.68;0.63;;;;;;;5.43;100.00;92808.84;2091510;28;20025;-82
2023/09/23 04:49:58;;;;;;;0.80;0.60;;;;;;;5.43;100.00;92808.84;2097664;28;20023;-84
2023/09/23 04:50:59;;;;;;;2.78;0.60;;;;;;;5.32;100.00;92810.06;2097531;28;20121;-81
2023/09/23 04:52:00;;;;;;;1.52;0.50;;;;;;;5.34;100.00;92805.88;2089186;28;20128;-83
2023/09/23 04:53:02;;;;;;;2.65;1.00;;;;;;;5.30;100.00;92810.44;2097489;28;20028;-82
2023/09/23 04:54:03;;;;;;;1.38;0.47;;;;;;;5.26;100.00;92809.72;2089464;28;20090;-84
2023/09/23 04:55:06;;;;;;;0.85;0.60;;;;;;;5.15;100.00;92811.69;2082701;28;20021;-84